createdAt,value
2023-07-02T00:05:11.782Z,2.78
2023-07-02T00:12:45.834Z,2.40
2023-07-02T00:20:21.241Z,2.10
2023-07-02T00:27:55.136Z,2.50
2023-07-02T00:35:30.338Z,2.33
2023-07-02T00:43:04.235Z,3.53
2023-07-02T00:50:39.843Z,3.10
2023-07-02T00:58:16.809Z,3.30
2023-07-02T01:05:52.317Z,3.78
2023-07-02T01:13:28.035Z,3.78
2023-07-02T01:21:08.141Z,4.45
2023-07-02T01:28:42.056Z,5.00
2023-07-02T01:36:17.404Z,5.50
2023-07-02T01:43:51.561Z,5.47
2023-07-02T01:51:26.850Z,7.00
2023-07-02T01:59:00.738Z,6.53
2023-07-02T02:06:36.843Z,5.38
2023-07-02T02:14:11.510Z,5.38
2023-07-02T02:21:46.801Z,4.93
2023-07-02T02:29:20.690Z,5.93
2023-07-02T02:36:56.473Z,5.07
2023-07-02T02:44:30.530Z,5.00
2023-07-02T02:52:06.454Z,5.83
2023-07-02T02:59:40.540Z,4.18
2023-07-02T03:07:16.132Z,3.63
2023-07-02T03:14:54.076Z,5.25
2023-07-02T03:22:29.290Z,6.45
2023-07-02T03:30:04.978Z,4.38
2023-07-02T03:37:43.264Z,4.90
2023-07-02T03:45:17.306Z,6.88
2023-07-02T03:52:52.662Z,8.20
2023-07-02T04:00:26.752Z,3.47
2023-07-02T04:08:01.967Z,4.30
2023-07-02T04:15:36.304Z,5.55
2023-07-02T04:23:11.677Z,4.60
2023-07-02T04:30:46.188Z,5.93
2023-07-02T04:38:21.502Z,7.82
2023-07-02T04:45:55.574Z,3.75
2023-07-02T04:53:31.257Z,5.63
2023-07-02T05:01:06.142Z,5.40
2023-07-02T05:16:17.289Z,5.10
2023-07-02T05:23:52.986Z,4.47
2023-07-02T05:31:27.023Z,7.53
2023-07-02T05:39:02.653Z,5.30
2023-07-02T05:46:36.696Z,4.75
2023-07-02T05:54:12.047Z,4.20
2023-07-02T06:01:46.283Z,4.53
2023-07-02T06:09:22.101Z,4.70
2023-07-02T06:16:58.825Z,3.85
2023-07-02T06:24:34.374Z,5.43
2023-07-02T06:32:09.409Z,3.63
2023-07-02T06:39:44.866Z,4.95
2023-07-02T06:47:21.619Z,4.10
2023-07-02T06:54:57.082Z,4.97
2023-07-02T07:02:31.217Z,7.88
2023-07-02T07:10:08.074Z,6.63
2023-07-02T07:17:42.670Z,6.15
2023-07-02T07:25:19.158Z,5.25
2023-07-02T07:32:53.422Z,3.67
2023-07-02T07:40:29.040Z,5.70
2023-07-02T07:48:04.014Z,6.38
2023-07-02T07:55:39.672Z,4.55
2023-07-02T08:03:13.634Z,3.75
2023-07-02T08:10:51.499Z,3.33
2023-07-02T08:18:26.044Z,7.55
2023-07-02T08:26:01.990Z,8.90
2023-07-02T08:33:36.066Z,6.85
2023-07-02T08:41:12.189Z,5.83
2023-07-02T08:48:46.184Z,5.55
2023-07-02T08:56:22.162Z,5.32
2023-07-02T09:04:02.469Z,4.68
2023-07-02T09:11:48.245Z,7.45
2023-07-02T09:19:25.867Z,5.65
2023-07-02T09:27:02.680Z,7.10
2023-07-02T09:34:38.337Z,8.20
2023-07-02T09:42:14.116Z,7.18
2023-07-02T09:49:55.073Z,7.95
2023-07-02T09:57:32.556Z,7.72
2023-07-02T10:05:07.174Z,11.52
2023-07-02T10:12:49.048Z,11.65
2023-07-02T10:20:35.003Z,9.23
2023-07-02T10:28:23.504Z,13.63
2023-07-02T10:35:57.336Z,10.00
2023-07-02T10:43:33.759Z,10.15
2023-07-02T10:51:14.701Z,13.10
2023-07-02T10:58:52.474Z,20.05
2023-07-02T11:06:27.130Z,16.02
2023-07-02T11:14:02.698Z,11.52
2023-07-02T11:21:36.783Z,11.73
2023-07-02T11:29:14.833Z,10.47
2023-07-02T11:36:49.411Z,18.17
2023-07-02T11:44:25.550Z,13.90
2023-07-02T11:51:59.894Z,12.10
2023-07-02T11:59:35.343Z,20.47
2023-07-02T12:07:09.163Z,14.07
2023-07-02T12:14:45.376Z,17.70
2023-07-02T12:22:20.194Z,13.80
2023-07-02T12:29:56.145Z,14.35
2023-07-02T12:37:30.342Z,22.77
2023-07-02T12:45:08.839Z,10.50
2023-07-02T12:52:42.750Z,16.25
2023-07-02T13:00:18.965Z,16.70
2023-07-02T13:07:53.067Z,15.38
2023-07-02T13:15:28.793Z,14.67
2023-07-02T13:23:02.791Z,17.02
2023-07-02T13:30:38.797Z,12.47
2023-07-02T13:38:12.704Z,13.02
2023-07-02T13:45:48.361Z,17.00
2023-07-02T13:53:22.558Z,13.48
2023-07-02T14:00:58.025Z,12.33
2023-07-02T14:08:32.057Z,9.85
2023-07-02T14:16:08.513Z,12.00
2023-07-02T14:23:43.053Z,10.93
2023-07-02T14:31:18.476Z,13.32
2023-07-02T14:38:52.529Z,15.07
2023-07-02T14:46:28.408Z,17.60
2023-07-02T14:54:05.369Z,10.43
2023-07-02T15:01:41.252Z,13.00
2023-07-02T15:09:15.232Z,9.45
2023-07-02T15:16:50.485Z,13.20
2023-07-02T15:24:24.593Z,12.75
2023-07-02T15:31:59.800Z,13.20
2023-07-02T15:39:34.687Z,9.32
2023-07-02T15:54:43.735Z,16.47
2023-07-02T16:02:18.969Z,13.50
2023-07-02T16:09:52.893Z,8.75
2023-07-02T16:17:28.056Z,30.15
2023-07-02T16:25:01.897Z,10.77
2023-07-02T16:32:37.156Z,11.40
2023-07-02T16:40:11.713Z,9.43
2023-07-02T16:47:48.355Z,9.10
2023-07-02T16:55:22.361Z,12.75
2023-07-02T17:02:57.654Z,7.97
2023-07-02T17:10:31.772Z,11.02
2023-07-02T17:18:07.456Z,12.23
2023-07-02T17:25:41.383Z,12.13
2023-07-02T17:33:17.163Z,10.50
2023-07-02T17:40:52.454Z,10.57
2023-07-02T17:48:28.660Z,10.70
2023-07-02T17:56:02.612Z,8.27
2023-07-02T18:03:38.269Z,9.87
2023-07-02T18:11:12.838Z,9.88
2023-07-02T18:18:48.456Z,10.68
2023-07-02T18:26:22.232Z,9.15
2023-07-02T18:33:57.334Z,11.70
2023-07-02T18:41:31.337Z,10.27
2023-07-02T18:49:07.413Z,7.60
2023-07-02T18:56:41.401Z,6.97
2023-07-02T19:04:26.213Z,9.90
2023-07-02T19:12:03.897Z,6.60
2023-07-02T19:19:42.026Z,10.65
2023-07-02T19:27:26.881Z,6.50
2023-07-02T19:42:37.446Z,7.93
2023-07-02T19:50:13.562Z,13.80
2023-07-02T19:57:47.603Z,9.90
2023-07-02T20:05:23.509Z,7.20
2023-07-02T20:12:57.338Z,9.10
2023-07-02T20:20:33.466Z,8.93
2023-07-02T20:28:07.491Z,9.35
2023-07-02T20:35:43.215Z,8.82
2023-07-02T20:43:17.036Z,9.07
2023-07-02T20:50:52.405Z,8.80
2023-07-02T20:58:26.653Z,9.85
2023-07-02T21:06:06.257Z,7.53
2023-07-02T21:13:40.084Z,11.02
2023-07-02T21:21:15.370Z,7.53
2023-07-02T21:28:49.187Z,9.15
2023-07-02T21:36:24.485Z,10.13
2023-07-02T21:43:59.466Z,8.88
2023-07-02T21:51:34.711Z,9.68
2023-07-02T21:59:08.787Z,7.75
2023-07-02T22:06:43.906Z,8.38
2023-07-02T22:21:55.431Z,8.95
2023-07-02T22:29:29.349Z,6.05
2023-07-02T22:37:04.856Z,7.75
2023-07-02T22:44:38.568Z,5.32
2023-07-02T22:52:13.751Z,7.10
2023-07-02T22:59:47.961Z,10.88
2023-07-02T23:07:23.226Z,7.53
2023-07-02T23:14:57.014Z,7.80
2023-07-02T23:22:32.388Z,9.90
2023-07-02T23:30:08.514Z,8.68
2023-07-02T23:37:46.718Z,8.13
2023-07-02T23:45:21.041Z,8.15
2023-07-02T23:52:56.585Z,6.80
